sensor_id;sensor_type;location;lat;lon;timestamp;pressure;altitude;pressure_sealevel;temperature;humidity
35892;BME280;21993;42.672;23.296;2022-09-09T00:00:38;94936.31;;;21.52;62.26
35892;BME280;21993;42.672;23.296;2022-09-09T00:03:14;94934.03;;;21.49;62.76
35892;BME280;21993;42.672;23.296;2022-09-09T00:08:35;94933.25;;;21.55;62.54
35892;BME280;21993;42.672;23.296;2022-09-09T00:11:04;94934.66;;;21.51;62.36
35892;BME280;21993;42.672;23.296;2022-09-09T00:13:37;94925.00;;;21.50;62.49
35892;BME280;21993;42.672;23.296;2022-09-09T00:16:19;94940.41;;;21.48;62.39
35892;BME280;21993;42.672;23.296;2022-09-09T00:22:14;94918.41;;;21.46;62.37
35892;BME280;21993;42.672;23.296;2022-09-09T00:27:10;94909.34;;;21.41;62.63
35892;BME280;21993;42.672;23.296;2022-09-09T00:32:16;94907.56;;;21.26;62.88
35892;BME280;21993;42.672;23.296;2022-09-09T00:34:52;94896.34;;;21.31;63.17
35892;BME280;21993;42.672;23.296;2022-09-09T00:37:19;94894.81;;;21.22;62.98
35892;BME280;21993;42.672;23.296;2022-09-09T00:39:47;94887.00;;;21.20;63.32
35892;BME280;21993;42.672;23.296;2022-09-09T00:42:26;94888.41;;;21.16;63.15
35892;BME280;21993;42.672;23.296;2022-09-09T00:47:53;94884.50;;;21.19;63.18
35892;BME280;21993;42.672;23.296;2022-09-09T00:55:59;94890.75;;;20.98;63.55
35892;BME280;21993;42.672;23.296;2022-09-09T00:58:30;94901.03;;;20.94;63.23
35892;BME280;21993;42.672;23.296;2022-09-09T01:03:37;94904.31;;;20.96;63.23
35892;BME280;21993;42.672;23.296;2022-09-09T01:06:32;94899.59;;;20.98;63.45
35892;BME280;21993;42.672;23.296;2022-09-09T01:11:52;94897.66;;;20.86;63.45
35892;BME280;21993;42.672;23.296;2022-09-09T01:27:46;94892.34;;;20.86;64.13
35892;BME280;21993;42.672;23.296;2022-09-09T01:30:16;94901.97;;;20.87;64.10
35892;BME280;21993;42.672;23.296;2022-09-09T01:32:50;94892.91;;;20.81;64.83
35892;BME280;21993;42.672;23.296;2022-09-09T01:37:59;94907.06;;;20.82;64.29
35892;BME280;21993;42.672;23.296;2022-09-09T01:40:25;94904.59;;;20.80;65.04
35892;BME280;21993;42.672;23.296;2022-09-09T01:42:52;94906.38;;;20.73;65.64
35892;BME280;21993;42.672;23.296;2022-09-09T01:45:17;94911.91;;;20.71;65.38
35892;BME280;21993;42.672;23.296;2022-09-09T01:47:44;94909.88;;;20.73;65.38
35892;BME280;21993;42.672;23.296;2022-09-09T01:50:13;94918.75;;;20.80;65.35
35892;BME280;21993;42.672;23.296;2022-09-09T01:52:41;94915.84;;;20.75;65.08
35892;BME280;21993;42.672;23.296;2022-09-09T01:55:08;94921.38;;;20.74;65.79
35892;BME280;21993;42.672;23.296;2022-09-09T02:00:21;94923.16;;;20.67;65.70
35892;BME280;21993;42.672;23.296;2022-09-09T02:05:51;94910.47;;;20.69;65.97
35892;BME280;21993;42.672;23.296;2022-09-09T02:08:25;94919.88;;;20.65;65.80
35892;BME280;21993;42.672;23.296;2022-09-09T02:11:12;94912.63;;;20.59;65.60
35892;BME280;21993;42.672;23.296;2022-09-09T02:13:39;94898.03;;;20.55;65.76
35892;BME280;21993;42.672;23.296;2022-09-09T02:16:12;94902.59;;;20.61;66.07
35892;BME280;21993;42.672;23.296;2022-09-09T02:18:57;94891.25;;;20.52;65.93
35892;BME280;21993;42.672;23.296;2022-09-09T02:21:28;94893.91;;;20.52;65.76
35892;BME280;21993;42.672;23.296;2022-09-09T02:23:55;94896.75;;;20.50;65.46
35892;BME280;21993;42.672;23.296;2022-09-09T02:26:21;94903.94;;;20.50;65.48
35892;BME280;21993;42.672;23.296;2022-09-09T02:28:49;94897.97;;;20.48;65.70
35892;BME280;21993;42.672;23.296;2022-09-09T02:31:18;94904.50;;;20.45;65.73
35892;BME280;21993;42.672;23.296;2022-09-09T02:33:49;94897.03;;;20.41;66.14
35892;BME280;21993;42.672;23.296;2022-09-09T02:36:18;94899.72;;;20.41;65.63
35892;BME280;21993;42.672;23.296;2022-09-09T02:38:47;94911.16;;;20.35;65.52
35892;BME280;21993;42.672;23.296;2022-09-09T02:41:25;94923.72;;;20.41;65.92
35892;BME280;21993;42.672;23.296;2022-09-09T02:43:51;94918.38;;;20.41;65.84
35892;BME280;21993;42.672;23.296;2022-09-09T02:49:15;94913.63;;;20.36;65.62
35892;BME280;21993;42.672;23.296;2022-09-09T02:54:32;94918.69;;;20.31;64.98
35892;BME280;21993;42.672;23.296;2022-09-09T02:57:20;94920.00;;;20.35;65.17
35892;BME280;21993;42.672;23.296;2022-09-09T02:59:47;94910.44;;;20.26;64.77
35892;BME280;21993;42.672;23.296;2022-09-09T03:02:13;94919.44;;;20.25;64.89
35892;BME280;21993;42.672;23.296;2022-09-09T03:04:39;94918.63;;;20.24;65.25
35892;BME280;21993;42.672;23.296;2022-09-09T03:07:06;94920.88;;;20.21;65.19
35892;BME280;21993;42.672;23.296;2022-09-09T03:09:31;94921.50;;;20.23;65.03
35892;BME280;21993;42.672;23.296;2022-09-09T03:11:58;94917.19;;;20.22;65.23
35892;BME280;21993;42.672;23.296;2022-09-09T03:14:24;94919.84;;;20.22;64.54
35892;BME280;21993;42.672;23.296;2022-09-09T03:16:53;94922.69;;;20.20;64.55
35892;BME280;21993;42.672;23.296;2022-09-09T03:19:20;94923.72;;;20.19;64.37
35892;BME280;21993;42.672;23.296;2022-09-09T03:21:46;94922.69;;;20.20;64.68
35892;BME280;21993;42.672;23.296;2022-09-09T03:24:13;94914.25;;;20.17;65.03
35892;BME280;21993;42.672;23.296;2022-09-09T03:26:40;94907.84;;;20.11;65.46
35892;BME280;21993;42.672;23.296;2022-09-09T03:29:06;94915.97;;;20.03;65.83
35892;BME280;21993;42.672;23.296;2022-09-09T03:31:33;94908.78;;;20.04;65.10
35892;BME280;21993;42.672;23.296;2022-09-09T03:33:59;94919.25;;;20.05;65.04
35892;BME280;21993;42.672;23.296;2022-09-09T03:36:28;94915.97;;;20.03;64.75
35892;BME280;21993;42.672;23.296;2022-09-09T03:38:54;94920.47;;;20.03;64.96
35892;BME280;21993;42.672;23.296;2022-09-09T03:41:21;94914.31;;;20.02;64.52
35892;BME280;21993;42.672;23.296;2022-09-09T03:43:52;94915.13;;;20.03;65.54
35892;BME280;21993;42.672;23.296;2022-09-09T03:46:23;94901.34;;;19.99;65.67
35892;BME280;21993;42.672;23.296;2022-09-09T03:48:48;94905.13;;;19.90;65.70
35892;BME280;21993;42.672;23.296;2022-09-09T03:51:14;94909.75;;;19.81;66.03
35892;BME280;21993;42.672;23.296;2022-09-09T03:53:41;94913.88;;;19.84;66.08
35892;BME280;21993;42.672;23.296;2022-09-09T03:56:08;94928.59;;;19.80;66.24
35892;BME280;21993;42.672;23.296;2022-09-09T03:58:35;94916.50;;;19.77;66.23
35892;BME280;21993;42.672;23.296;2022-09-09T04:01:07;94923.28;;;19.80;66.03
35892;BME280;21993;42.672;23.296;2022-09-09T04:03:33;94917.31;;;19.78;65.71
35892;BME280;21993;42.672;23.296;2022-09-09T04:06:00;94925.75;;;19.81;66.15
35892;BME280;21993;42.672;23.296;2022-09-09T04:08:27;94921.44;;;19.80;66.46
35892;BME280;21993;42.672;23.296;2022-09-09T04:10:54;94920.09;;;19.70;66.73
35892;BME280;21993;42.672;23.296;2022-09-09T04:13:22;94924.59;;;19.69;66.86
35892;BME280;21993;42.672;23.296;2022-09-09T04:15:56;94927.25;;;19.69;66.56
35892;BME280;21993;42.672;23.296;2022-09-09T04:18:22;94926.88;;;19.72;66.29
35892;BME280;21993;42.672;23.296;2022-09-09T04:20:49;94918.53;;;19.60;66.58
35892;BME280;21993;42.672;23.296;2022-09-09T04:23:15;94924.59;;;19.69;66.51
35892;BME280;21993;42.672;23.296;2022-09-09T04:25:49;94920.31;;;19.75;66.83
35892;BME280;21993;42.672;23.296;2022-09-09T04:28:16;94923.81;;;19.75;66.42
35892;BME280;21993;42.672;23.296;2022-09-09T04:30:43;94929.72;;;19.71;65.85
35892;BME280;21993;42.672;23.296;2022-09-09T04:33:09;94929.25;;;19.67;66.12
35892;BME280;21993;42.672;23.296;2022-09-09T04:35:35;94929.72;;;19.71;66.16
35892;BME280;21993;42.672;23.296;2022-09-09T04:38:02;94923.75;;;19.68;66.45
35892;BME280;21993;42.672;23.296;2022-09-09T04:40:29;94933.66;;;19.75;66.28
35892;BME280;21993;42.672;23.296;2022-09-09T04:42:55;94934.47;;;19.75;66.64
35892;BME280;21993;42.672;23.296;2022-09-09T04:45:22;94935.50;;;19.74;66.10
35892;BME280;21993;42.672;23.296;2022-09-09T04:47:48;94935.06;;;19.71;65.84
35892;BME280;21993;42.672;23.296;2022-09-09T04:50:14;94919.63;;;19.66;66.39
35892;BME280;21993;42.672;23.296;2022-09-09T04:52:39;94913.09;;;19.54;66.84
35892;BME280;21993;42.672;23.296;2022-09-09T04:55:06;94917.03;;;19.58;66.71
35892;BME280;21993;42.672;23.296;2022-09-09T04:57:32;94914.38;;;19.58;66.93
35892;BME280;21993;42.672;23.296;2022-09-09T04:59:58;94916.03;;;19.59;67.05
35892;BME280;21993;42.672;23.296;2022-09-09T05:02:25;94924.69;;;19.61;67.31
35892;BME280;21993;42.672;23.296;2022-09-09T05:04:51;94911.38;;;19.61;67.50
35892;BME280;21993;42.672;23.296;2022-09-09T05:07:16;94896.56;;;19.58;67.77
35892;BME280;21993;42.672;23.296;2022-09-09T05:09:42;94888.31;;;19.68;67.30
35892;BME280;21993;42.672;23.296;2022-09-09T05:12:08;94900.66;;;19.76;66.37
35892;BME280;21993;42.672;23.296;2022-09-09T05:14:33;94910.88;;;19.72;66.78
35892;BME280;21993;42.672;23.296;2022-09-09T05:17:01;94922.25;;;19.81;66.66
35892;BME280;21993;42.672;23.296;2022-09-09T05:19:26;94911.41;;;19.82;66.69
35892;BME280;21993;42.672;23.296;2022-09-09T05:21:52;94905.84;;;19.77;66.98
35892;BME280;21993;42.672;23.296;2022-09-09T05:24:17;94896.81;;;19.78;67.20
35892;BME280;21993;42.672;23.296;2022-09-09T05:26:43;94893.56;;;19.83;66.94
35892;BME280;21993;42.672;23.296;2022-09-09T05:29:09;94903.06;;;19.85;67.21
35892;BME280;21993;42.672;23.296;2022-09-09T05:31:34;94913.53;;;19.87;67.14
35892;BME280;21993;42.672;23.296;2022-09-09T05:34:00;94908.72;;;19.97;66.67
35892;BME280;21993;42.672;23.296;2022-09-09T05:36:25;94899.78;;;20.05;66.49
35892;BME280;21993;42.672;23.296;2022-09-09T05:38:51;94902.13;;;20.14;66.10
35892;BME280;21993;42.672;23.296;2022-09-09T05:41:19;94901.81;;;20.24;65.66
35892;BME280;21993;42.672;23.296;2022-09-09T05:43:45;94905.75;;;20.28;66.12
35892;BME280;21993;42.672;23.296;2022-09-09T05:46:14;94913.38;;;20.31;65.77
35892;BME280;21993;42.672;23.296;2022-09-09T05:48:42;94920.41;;;20.39;65.88
35892;BME280;21993;42.672;23.296;2022-09-09T05:51:10;94913.22;;;20.54;65.09
35892;BME280;21993;42.672;23.296;2022-09-09T05:53:41;94906.91;;;20.62;65.01
35892;BME280;21993;42.672;23.296;2022-09-09T05:56:18;94913.69;;;20.64;64.15
35892;BME280;21993;42.672;23.296;2022-09-09T05:58:44;94911.66;;;20.66;64.16
35892;BME280;21993;42.672;23.296;2022-09-09T06:03:48;94914.44;;;20.79;63.60
35892;BME280;21993;42.672;23.296;2022-09-09T06:06:16;94923.91;;;21.10;61.11
35892;BME280;21993;42.672;23.296;2022-09-09T06:08:43;94925.66;;;20.96;61.84
35892;BME280;21993;42.672;23.296;2022-09-09T06:11:18;94929.56;;;21.00;62.79
35892;BME280;21993;42.672;23.296;2022-09-09T06:13:44;94925.06;;;21.01;63.11
35892;BME280;21993;42.672;23.296;2022-09-09T06:16:16;94923.13;;;21.16;62.14
35892;BME280;21993;42.672;23.296;2022-09-09T06:18:43;94920.25;;;21.18;61.23
35892;BME280;21993;42.672;23.296;2022-09-09T06:21:19;94919.69;;;21.22;60.90
35892;BME280;21993;42.672;23.296;2022-09-09T06:23:46;94921.78;;;21.27;60.92
35892;BME280;21993;42.672;23.296;2022-09-09T06:26:22;94918.53;;;21.31;61.08
35892;BME280;21993;42.672;23.296;2022-09-09T06:28:50;94917.97;;;21.36;60.47
35892;BME280;21993;42.672;23.296;2022-09-09T06:31:20;94927.88;;;21.49;60.05
35892;BME280;21993;42.672;23.296;2022-09-09T06:33:52;94917.63;;;21.59;59.96
35892;BME280;21993;42.672;23.296;2022-09-09T06:36:23;94915.88;;;21.73;59.02
35892;BME280;21993;42.672;23.296;2022-09-09T06:38:49;94906.88;;;21.87;58.71
35892;BME280;21993;42.672;23.296;2022-09-09T06:41:17;94907.31;;;21.97;58.58
35892;BME280;21993;42.672;23.296;2022-09-09T06:43:44;94911.66;;;21.98;59.36
35892;BME280;21993;42.672;23.296;2022-09-09T06:46:12;94907.59;;;22.09;59.38
35892;BME280;21993;42.672;23.296;2022-09-09T06:48:39;94902.25;;;22.15;58.87
35892;BME280;21993;42.672;23.296;2022-09-09T06:53:34;94915.84;;;22.27;57.87
35892;BME280;21993;42.672;23.296;2022-09-09T06:56:23;94923.06;;;22.27;57.58
35892;BME280;21993;42.672;23.296;2022-09-09T06:58:50;94926.81;;;22.39;57.47
35892;BME280;21993;42.672;23.296;2022-09-09T07:01:19;94924.97;;;22.46;57.47
35892;BME280;21993;42.672;23.296;2022-09-09T07:03:47;94926.19;;;22.70;56.64
35892;BME280;21993;42.672;23.296;2022-09-09T07:06:21;94922.53;;;22.71;56.43
35892;BME280;21993;42.672;23.296;2022-09-09T07:08:55;94926.63;;;22.73;56.92
35892;BME280;21993;42.672;23.296;2022-09-09T07:11:22;94926.66;;;22.80;57.23
35892;BME280;21993;42.672;23.296;2022-09-09T07:13:49;94924.81;;;22.87;56.65
35892;BME280;21993;42.672;23.296;2022-09-09T07:16:18;94905.66;;;22.90;56.93
35892;BME280;21993;42.672;23.296;2022-09-09T07:18:46;94919.25;;;23.02;56.67
35892;BME280;21993;42.672;23.296;2022-09-09T07:21:13;94917.59;;;23.08;56.43
35892;BME280;21993;42.672;23.296;2022-09-09T07:23:40;94914.09;;;23.14;56.58
35892;BME280;21993;42.672;23.296;2022-09-09T07:28:36;94909.50;;;23.34;55.77
35892;BME280;21993;42.672;23.296;2022-09-09T07:31:02;94908.25;;;23.50;54.93
35892;BME280;21993;42.672;23.296;2022-09-09T07:33:29;94907.22;;;23.44;55.46
35892;BME280;21993;42.672;23.296;2022-09-09T07:36:22;94903.50;;;23.65;54.43
35892;BME280;21993;42.672;23.296;2022-09-09T07:38:53;94899.69;;;23.79;53.57
35892;BME280;21993;42.672;23.296;2022-09-09T07:41:24;94906.09;;;23.85;53.01
35892;BME280;21993;42.672;23.296;2022-09-09T07:43:51;94907.81;;;23.66;54.50
35892;BME280;21993;42.672;23.296;2022-09-09T07:46:19;94911.66;;;23.90;53.56
35892;BME280;21993;42.672;23.296;2022-09-09T07:48:45;94909.38;;;23.87;53.90
35892;BME280;21993;42.672;23.296;2022-09-09T07:51:14;94911.47;;;23.78;54.95
35892;BME280;21993;42.672;23.296;2022-09-09T07:53:45;94921.13;;;23.93;54.28
35892;BME280;21993;42.672;23.296;2022-09-09T07:56:13;94918.81;;;23.96;53.35
35892;BME280;21993;42.672;23.296;2022-09-09T07:58:40;94911.09;;;24.13;53.29
35892;BME280;21993;42.672;23.296;2022-09-09T08:01:10;94907.09;;;24.29;52.45
35892;BME280;21993;42.672;23.296;2022-09-09T08:03:37;94902.06;;;24.46;52.83
35892;BME280;21993;42.672;23.296;2022-09-09T08:06:03;94906.09;;;24.61;51.68
35892;BME280;21993;42.672;23.296;2022-09-09T08:08:29;94903.69;;;24.53;52.06
35892;BME280;21993;42.672;23.296;2022-09-09T08:11:02;94909.03;;;24.53;54.59
35892;BME280;21993;42.672;23.296;2022-09-09T08:13:28;94911.44;;;24.68;58.43
35892;BME280;21993;42.672;23.296;2022-09-09T08:15:54;94904.94;;;23.61;89.30
35892;BME280;21993;42.672;23.296;2022-09-09T08:18:19;94901.69;;;22.60;83.87
35892;BME280;21993;42.672;23.296;2022-09-09T08:20:44;94896.31;;;22.33;86.61
35892;BME280;21993;42.672;23.296;2022-09-09T08:23:10;94911.31;;;22.28;84.75
35892;BME280;21993;42.672;23.296;2022-09-09T08:25:35;94909.28;;;22.23;83.27
35892;BME280;21993;42.672;23.296;2022-09-09T08:28:01;94907.25;;;22.58;80.43
35892;BME280;21993;42.672;23.296;2022-09-09T08:30:27;94899.44;;;22.70;76.68
35892;BME280;21993;42.672;23.296;2022-09-09T08:32:52;94901.94;;;22.85;79.70
35892;BME280;21993;42.672;23.296;2022-09-09T08:35:17;94900.91;;;22.86;79.06
35892;BME280;21993;42.672;23.296;2022-09-09T08:37:45;94904.41;;;22.93;81.13
35892;BME280;21993;42.672;23.296;2022-09-09T08:40:20;94905.84;;;22.82;70.70
35892;BME280;21993;42.672;23.296;2022-09-09T08:42:51;94899.06;;;22.93;73.24
35892;BME280;21993;42.672;23.296;2022-09-09T08:45:37;94888.78;;;22.96;73.93
35892;BME280;21993;42.672;23.296;2022-09-09T08:50:58;94899.06;;;23.06;69.48
35892;BME280;21993;42.672;23.296;2022-09-09T08:53:38;94895.94;;;23.22;67.51
35892;BME280;21993;42.672;23.296;2022-09-09T08:56:11;94890.53;;;23.36;67.20
35892;BME280;21993;42.672;23.296;2022-09-09T08:58:47;94898.41;;;23.17;61.62
35892;BME280;21993;42.672;23.296;2022-09-09T09:11:58;94897.44;;;23.83;62.96
35892;BME280;21993;42.672;23.296;2022-09-09T09:14:32;94898.03;;;23.85;57.31
35892;BME280;21993;42.672;23.296;2022-09-09T09:17:17;94892.22;;;23.95;55.26
35892;BME280;21993;42.672;23.296;2022-09-09T09:19:45;94885.75;;;24.09;56.91
35892;BME280;21993;42.672;23.296;2022-09-09T09:22:32;94888.53;;;24.27;59.66
35892;BME280;21993;42.672;23.296;2022-09-09T09:30:26;94891.81;;;24.29;56.83
35892;BME280;21993;42.672;23.296;2022-09-09T09:32:58;94897.41;;;24.34;57.10
35892;BME280;21993;42.672;23.296;2022-09-09T09:35:25;94886.53;;;24.54;61.05
35892;BME280;21993;42.672;23.296;2022-09-09T09:37:50;94886.19;;;24.44;57.88
35892;BME280;21993;42.672;23.296;2022-09-09T09:40:19;94878.31;;;24.49;59.71
35892;BME280;21993;42.672;23.296;2022-09-09T09:42:50;94871.72;;;24.45;57.22
35892;BME280;21993;42.672;23.296;2022-09-09T09:45:40;94868.19;;;24.51;56.02
35892;BME280;21993;42.672;23.296;2022-09-09T09:48:10;94869.69;;;24.72;57.76
35892;BME280;21993;42.672;23.296;2022-09-09T09:51:08;94875.22;;;24.77;55.83
35892;BME280;21993;42.672;23.296;2022-09-09T09:53:34;94865.88;;;24.80;54.80
35892;BME280;21993;42.672;23.296;2022-09-09T09:56:03;94858.94;;;24.72;53.40
35892;BME280;21993;42.672;23.296;2022-09-09T09:58:33;94861.78;;;24.77;55.13
35892;BME280;21993;42.672;23.296;2022-09-09T10:01:02;94858.81;;;24.85;55.73
35892;BME280;21993;42.672;23.296;2022-09-09T10:03:32;94860.31;;;24.81;53.82
35892;BME280;21993;42.672;23.296;2022-09-09T10:06:03;94857.50;;;24.69;53.02
35892;BME280;21993;42.672;23.296;2022-09-09T10:08:28;94863.00;;;24.81;54.10
35892;BME280;21993;42.672;23.296;2022-09-09T10:11:12;94865.78;;;24.93;54.35
35892;BME280;21993;42.672;23.296;2022-09-09T10:19:35;94873.94;;;25.05;54.15
35892;BME280;21993;42.672;23.296;2022-09-09T10:22:28;94878.44;;;25.11;53.47
35892;BME280;21993;42.672;23.296;2022-09-09T10:34:17;94866.88;;;25.10;55.09
35892;BME280;21993;42.672;23.296;2022-09-09T10:36:49;94865.47;;;25.08;54.36
35892;BME280;21993;42.672;23.296;2022-09-09T10:39:30;94869.56;;;25.10;54.96
35892;BME280;21993;42.672;23.296;2022-09-09T10:42:05;94889.44;;;25.09;54.66
35892;BME280;21993;42.672;23.296;2022-09-09T10:50:01;94884.41;;;25.13;52.87
35892;BME280;21993;42.672;23.296;2022-09-09T10:55:42;94882.94;;;25.17;53.75
35892;BME280;21993;42.672;23.296;2022-09-09T10:58:28;94877.94;;;25.20;53.39
35892;BME280;21993;42.672;23.296;2022-09-09T11:01:00;94870.34;;;25.17;53.76
35892;BME280;21993;42.672;23.296;2022-09-09T11:03:34;94869.44;;;25.23;54.32
35892;BME280;21993;42.672;23.296;2022-09-09T11:06:12;94878.47;;;25.29;53.43
35892;BME280;21993;42.672;23.296;2022-09-09T11:08:39;94873.72;;;25.31;53.81
35892;BME280;21993;42.672;23.296;2022-09-09T11:16:34;94861.28;;;25.30;54.25
35892;BME280;21993;42.672;23.296;2022-09-09T11:21:50;94855.03;;;25.36;54.63
35892;BME280;21993;42.672;23.296;2022-09-09T11:24:41;94855.84;;;25.37;54.52
35892;BME280;21993;42.672;23.296;2022-09-09T11:40:22;94813.44;;;25.57;55.10
35892;BME280;21993;42.672;23.296;2022-09-09T11:42:49;94801.56;;;25.65;56.18
35892;BME280;21993;42.672;23.296;2022-09-09T11:45:24;94810.66;;;25.64;54.64
35892;BME280;21993;42.672;23.296;2022-09-09T11:47:57;94794.09;;;25.67;55.38
35892;BME280;21993;42.672;23.296;2022-09-09T11:52:49;94777.09;;;25.73;54.66
35892;BME280;21993;42.672;23.296;2022-09-09T11:55:28;94783.28;;;25.73;54.56
35892;BME280;21993;42.672;23.296;2022-09-09T12:00:46;94789.47;;;25.74;54.88
35892;BME280;21993;42.672;23.296;2022-09-09T12:06:13;94781.47;;;25.97;54.72
35892;BME280;21993;42.672;23.296;2022-09-09T12:08:43;94783.47;;;25.90;54.83
35892;BME280;21993;42.672;23.296;2022-09-09T12:11:10;94765.56;;;25.96;53.96
35892;BME280;21993;42.672;23.296;2022-09-09T12:13:36;94762.69;;;26.09;54.31
35892;BME280;21993;42.672;23.296;2022-09-09T12:16:02;94765.72;;;26.13;53.98
35892;BME280;21993;42.672;23.296;2022-09-09T12:18:38;94761.78;;;26.27;54.21
35892;BME280;21993;42.672;23.296;2022-09-09T12:23:55;94764.72;;;26.37;53.27
35892;BME280;21993;42.672;23.296;2022-09-09T12:29:25;94755.53;;;26.45;53.19
35892;BME280;21993;42.672;23.296;2022-09-09T12:32:03;94747.78;;;26.48;53.17
35892;BME280;21993;42.672;23.296;2022-09-09T12:37:33;94755.31;;;26.70;52.21
35892;BME280;21993;42.672;23.296;2022-09-09T12:40:05;94746.50;;;26.62;52.18
35892;BME280;21993;42.672;23.296;2022-09-09T12:42:31;94746.97;;;26.71;52.16
35892;BME280;21993;42.672;23.296;2022-09-09T12:45:03;94744.53;;;26.70;52.18
35892;BME280;21993;42.672;23.296;2022-09-09T12:47:49;94749.56;;;26.66;52.17
35892;BME280;21993;42.672;23.296;2022-09-09T12:50:20;94735.38;;;26.71;52.56
35892;BME280;21993;42.672;23.296;2022-09-09T12:52:47;94740.78;;;26.71;53.42
35892;BME280;21993;42.672;23.296;2022-09-09T12:55:20;94724.63;;;26.71;52.38
35892;BME280;21993;42.672;23.296;2022-09-09T12:57:48;94728.38;;;26.70;51.88
35892;BME280;21993;42.672;23.296;2022-09-09T13:00:21;94723.44;;;26.78;52.67
35892;BME280;21993;42.672;23.296;2022-09-09T13:02:56;94714.63;;;26.94;51.08
35892;BME280;21993;42.672;23.296;2022-09-09T13:05:42;94713.56;;;26.96;51.20
35892;BME280;21993;42.672;23.296;2022-09-09T13:08:14;94721.19;;;26.87;51.21
35892;BME280;21993;42.672;23.296;2022-09-09T13:10:44;94722.03;;;26.76;51.91
35892;BME280;21993;42.672;23.296;2022-09-09T13:13:16;94715.59;;;26.77;51.97
35892;BME280;21993;42.672;23.296;2022-09-09T13:15:54;94712.78;;;26.83;51.74
35892;BME280;21993;42.672;23.296;2022-09-09T13:18:27;94700.94;;;26.84;52.48
35892;BME280;21993;42.672;23.296;2022-09-09T13:20:53;94699.66;;;26.87;52.29
35892;BME280;21993;42.672;23.296;2022-09-09T13:23:32;94699.31;;;26.83;52.32
35892;BME280;21993;42.672;23.296;2022-09-09T13:26:00;94695.06;;;26.99;51.38
35892;BME280;21993;42.672;23.296;2022-09-09T13:28:28;94693.41;;;26.98;51.43
35892;BME280;21993;42.672;23.296;2022-09-09T13:30:59;94682.06;;;26.96;51.20
35892;BME280;21993;42.672;23.296;2022-09-09T13:33:36;94676.09;;;26.94;51.91
35892;BME280;21993;42.672;23.296;2022-09-09T13:36:10;94682.88;;;26.97;51.69
35892;BME280;21993;42.672;23.296;2022-09-09T13:38:59;94684.88;;;26.89;51.75
35892;BME280;21993;42.672;23.296;2022-09-09T13:41:32;94687.94;;;26.81;51.88
35892;BME280;21993;42.672;23.296;2022-09-09T13:43:59;94686.16;;;26.99;51.52
35892;BME280;21993;42.672;23.296;2022-09-09T13:49:02;94669.06;;;26.93;51.61
35892;BME280;21993;42.672;23.296;2022-09-09T13:51:48;94676.78;;;26.89;51.10
35892;BME280;21993;42.672;23.296;2022-09-09T13:54:17;94674.00;;;26.84;51.46
35892;BME280;21993;42.672;23.296;2022-09-09T13:56:44;94671.28;;;26.96;51.17
35892;BME280;21993;42.672;23.296;2022-09-09T13:59:12;94670.69;;;27.06;50.29
35892;BME280;21993;42.672;23.296;2022-09-09T14:01:39;94667.19;;;26.93;50.88
35892;BME280;21993;42.672;23.296;2022-09-09T14:04:05;94665.19;;;26.89;51.15
35892;BME280;21993;42.672;23.296;2022-09-09T14:06:31;94674.59;;;26.86;51.14
35892;BME280;21993;42.672;23.296;2022-09-09T14:08:57;94670.72;;;26.94;51.01
35892;BME280;21993;42.672;23.296;2022-09-09T14:11:24;94663.09;;;26.91;50.95
35892;BME280;21993;42.672;23.296;2022-09-09T14:13:49;94666.94;;;26.95;51.39
35892;BME280;21993;42.672;23.296;2022-09-09T14:16:16;94663.19;;;26.96;50.89
35892;BME280;21993;42.672;23.296;2022-09-09T14:18:43;94672.22;;;26.90;51.30
35892;BME280;21993;42.672;23.296;2022-09-09T14:21:09;94670.94;;;26.92;51.51
35892;BME280;21993;42.672;23.296;2022-09-09T14:23:35;94664.59;;;26.99;50.97
35892;BME280;21993;42.672;23.296;2022-09-09T14:26:01;94663.53;;;27.11;49.82
35892;BME280;21993;42.672;23.296;2022-09-09T14:28:26;94661.44;;;27.02;50.72
35892;BME280;21993;42.672;23.296;2022-09-09T14:30:53;94672.66;;;26.99;51.22
35892;BME280;21993;42.672;23.296;2022-09-09T14:33:19;94671.28;;;26.96;51.02
35892;BME280;21993;42.672;23.296;2022-09-09T14:35:44;94665.44;;;26.99;50.75
35892;BME280;21993;42.672;23.296;2022-09-09T14:38:10;94674.47;;;26.93;50.77
35892;BME280;21993;42.672;23.296;2022-09-09T14:40:36;94663.94;;;26.91;50.46
35892;BME280;21993;42.672;23.296;2022-09-09T14:43:03;94664.13;;;26.90;50.72
35892;BME280;21993;42.672;23.296;2022-09-09T14:45:30;94658.97;;;27.00;50.37
35892;BME280;21993;42.672;23.296;2022-09-09T14:47:55;94665.06;;;26.96;50.26
35892;BME280;21993;42.672;23.296;2022-09-09T14:50:22;94659.69;;;26.96;50.01
35892;BME280;21993;42.672;23.296;2022-09-09T14:52:48;94661.44;;;27.02;50.07
35892;BME280;21993;42.672;23.296;2022-09-09T14:55:14;94655.84;;;26.91;50.40
35892;BME280;21993;42.672;23.296;2022-09-09T14:57:40;94657.47;;;26.92;50.30
35892;BME280;21993;42.672;23.296;2022-09-09T15:00:08;94665.31;;;26.94;50.58
35892;BME280;21993;42.672;23.296;2022-09-09T15:02:34;94670.72;;;26.94;49.98
35892;BME280;21993;42.672;23.296;2022-09-09T15:04:59;94673.03;;;26.90;50.29
35892;BME280;21993;42.672;23.296;2022-09-09T15:07:26;94683.94;;;26.96;50.05
35892;BME280;21993;42.672;23.296;2022-09-09T15:09:53;94677.03;;;26.88;50.11
35892;BME280;21993;42.672;23.296;2022-09-09T15:12:19;94676.34;;;26.81;50.86
35892;BME280;21993;42.672;23.296;2022-09-09T15:14:46;94683.84;;;26.79;50.87
35892;BME280;21993;42.672;23.296;2022-09-09T15:17:12;94686.53;;;26.79;51.17
35892;BME280;21993;42.672;23.296;2022-09-09T15:19:38;94681.16;;;26.79;51.03
35892;BME280;21993;42.672;23.296;2022-09-09T15:22:05;94685.47;;;26.80;51.42
35892;BME280;21993;42.672;23.296;2022-09-09T15:24:31;94679.53;;;26.78;50.79
35892;BME280;21993;42.672;23.296;2022-09-09T15:26:57;94687.59;;;26.78;50.71